Decoded Metar for LROP (BUCHAREST in ROMANIA) (IATA:OTP) | Meteo·Mobile Aviation Weather
aviador You're here:

LROP Decoded Metar

BUCHAREST in ROMANIA
Report Time2019-02-22 03:30:00
UTC Time2019-02-22 04:04:08
Flight Rules vfr VFR
WindCalm
Visibility9999 m
Phenomena:N/A
Clouds:N/A
Expected CloudBase > 400 ft AGL from Temp-Dew spread
CeilingNone
Temp01°C (ISA -13)
Dew Point00°C (93% RH)
AAT-1.0°C
QNH1018 hPa
Density Alt-1,404 ft
Elevation312 ft
Report Wrong Elevation
Raw Report
METAR LROP 220330Z 00000KT CAVOK 01/M00 Q1018 NOSIG=

Extra information for LROP:More info

Metar Taf Metar & Taf Last 4 Metars F.Rules Stats Wind Profile Meteogram Temp Stats Airport Information Weather charts Add Link Nearby VenuesMetar ALERT Operation Metar Decoded Social comments